Time;durP1;ratioP1;P1;durP2;ratioP2;P2;SDS_P1;SDS_P2;PMS_P1;PMS_P2;Temp;Humidity;BMP_temperature;BMP_pressure;BME280_temperature;BME280_humidity;BME280_pressure;Samples;Min_cycle;Max_cycle;Signal;HPM_P1;HPM_P2
2022/09/15 00:01:05;;;;;;;0.43;0.43;;;;;;;;;;4992637;28;20050;-83
2022/09/15 00:03:33;;;;;;;0.70;0.40;;;;;;;;;;4993631;28;20047;-83
2022/09/15 00:06:00;;;;;;;0.52;0.40;;;;;;;;;;4992468;28;20082;-83
2022/09/15 00:08:27;;;;;;;0.52;0.30;;;;;;;;;;4993829;28;20051;-83
2022/09/15 00:10:57;;;;;;;0.20;0.20;;;;;;;;;;4994071;28;20050;-83
2022/09/15 00:13:24;;;;;;;1.15;0.40;;;;;;;;;;4993808;28;20141;-82
2022/09/15 00:15:51;;;;;;;1.15;0.50;;;;;;;;;;4993657;28;20093;-83
2022/09/15 00:18:19;;;;;;;2.42;0.40;;;;;;;;;;4993820;28;20042;-82
2022/09/15 00:20:46;;;;;;;1.52;0.30;;;;;;;;;;4992821;28;20042;-82
2022/09/15 00:23:14;;;;;;;0.50;0.50;;;;;;;;;;4993657;28;20501;-82
2022/09/15 00:25:45;;;;;;;1.13;0.40;;;;;;;;;;4993357;28;20511;-82
2022/09/15 00:28:13;;;;;;;0.40;0.40;;;;;;;;;;4993822;28;20046;-82
2022/09/15 00:30:44;;;;;;;5.53;0.75;;;;;;;;;;4993502;28;20054;-82
2022/09/15 00:33:11;;;;;;;0.22;0.22;;;;;;;;;;4991220;28;20050;-82
2022/09/15 00:35:40;;;;;;;1.45;0.40;;;;;;;;;;4993262;28;20055;-82
2022/09/15 00:38:07;;;;;;;0.98;0.60;;;;;;;;;;4992019;28;20050;-82
2022/09/15 00:40:42;;;;;;;0.60;0.60;;;;;;;;;;4998060;28;20209;-83
2022/09/15 00:43:10;;;;;;;0.60;0.60;;;;;;;;;;5002684;28;20102;-83
2022/09/15 00:45:38;;;;;;;0.47;0.47;;;;;;;;;;4993048;28;20420;-81
2022/09/15 00:48:06;;;;;;;0.57;0.57;;;;;;;;;;4992897;28;20075;-81
2022/09/15 00:50:34;;;;;;;0.47;0.40;;;;;;;;;;4991763;28;20050;-81
2022/09/15 00:53:03;;;;;;;0.40;0.40;;;;;;;;;;4992012;28;20050;-82
2022/09/15 00:55:36;;;;;;;1.17;0.40;;;;;;;;;;4993070;28;20073;-81
2022/09/15 00:58:05;;;;;;;0.47;0.47;;;;;;;;;;4993323;28;20058;-80
2022/09/15 01:00:33;;;;;;;0.73;0.40;;;;;;;;;;4995276;28;20053;-81
2022/09/15 01:03:00;;;;;;;2.63;0.35;;;;;;;;;;4998564;28;20524;-82
2022/09/15 01:05:30;;;;;;;3.80;0.60;;;;;;;;;;5002797;28;20050;-82
2022/09/15 01:07:59;;;;;;;2.47;0.30;;;;;;;;;;5004453;28;20046;-82
2022/09/15 01:10:28;;;;;;;1.75;0.40;;;;;;;;;;5001227;28;20567;-82
2022/09/15 01:12:57;;;;;;;0.30;0.30;;;;;;;;;;5017763;28;20058;-82
2022/09/15 01:15:26;;;;;;;1.33;0.70;;;;;;;;;;5001513;28;20046;-82
2022/09/15 01:17:59;;;;;;;3.83;1.08;;;;;;;;;;5001680;28;20060;-82
2022/09/15 01:20:36;;;;;;;4.53;0.60;;;;;;;;;;5017659;28;20046;-82
2022/09/15 01:23:15;;;;;;;4.47;0.98;;;;;;;;;;5001522;28;20049;-82
2022/09/15 01:25:42;;;;;;;1.50;0.98;;;;;;;;;;4999287;28;20046;-82
2022/09/15 01:28:20;;;;;;;0.95;0.95;;;;;;;;;;4997755;28;20042;-82
2022/09/15 01:30:55;;;;;;;1.95;1.20;;;;;;;;;;5015560;28;20054;-82
2022/09/15 01:33:36;;;;;;;1.20;1.20;;;;;;;;;;4996749;28;20050;-82
2022/09/15 01:36:16;;;;;;;2.05;1.08;;;;;;;;;;5013881;28;20432;-82
2022/09/15 01:39:03;;;;;;;1.48;1.40;;;;;;;;;;4996914;28;20049;-82
2022/09/15 01:41:34;;;;;;;1.52;1.30;;;;;;;;;;4998325;28;20054;-82
2022/09/15 01:44:08;;;;;;;1.70;1.60;;;;;;;;;;4998096;28;20049;-81
2022/09/15 01:46:39;;;;;;;1.95;1.40;;;;;;;;;;5019819;28;20417;-81
2022/09/15 01:49:08;;;;;;;2.47;2.28;;;;;;;;;;5018549;28;20049;-81
2022/09/15 01:51:36;;;;;;;1.98;1.88;;;;;;;;;;5017591;28;20052;-82
2022/09/15 01:54:04;;;;;;;2.85;2.53;;;;;;;;;;5017320;28;20497;-82
2022/09/15 01:56:32;;;;;;;5.70;5.30;;;;;;;;;;5018623;28;20050;-82
2022/09/15 01:58:59;;;;;;;7.57;6.90;;;;;;;;;;4999898;28;20130;-81
2022/09/15 02:01:42;;;;;;;7.32;6.72;;;;;;;;;;5006614;28;20074;-82
2022/09/15 02:04:20;;;;;;;11.93;8.90;;;;;;;;;;5007126;28;20046;-82
2022/09/15 02:06:59;;;;;;;11.15;8.73;;;;;;;;;;5022024;28;20045;-81
2022/09/15 02:09:37;;;;;;;7.82;6.35;;;;;;;;;;5004822;28;20049;-82
2022/09/15 02:12:11;;;;;;;14.93;9.30;;;;;;;;;;5022300;28;20125;-82
2022/09/15 02:14:54;;;;;;;11.43;10.15;;;;;;;;;;5004144;28;20050;-81
2022/09/15 02:17:23;;;;;;;11.88;10.60;;;;;;;;;;5002943;28;20073;-81
2022/09/15 02:19:52;;;;;;;12.00;9.95;;;;;;;;;;5005238;28;20042;-82
2022/09/15 02:22:26;;;;;;;11.68;9.20;;;;;;;;;;5018677;28;20049;-81
2022/09/15 02:25:02;;;;;;;14.15;10.25;;;;;;;;;;5014861;28;20137;-80
2022/09/15 02:27:30;;;;;;;12.60;9.15;;;;;;;;;;4997306;28;20050;-79
2022/09/15 02:30:02;;;;;;;8.80;7.43;;;;;;;;;;4997203;28;20046;-81
2022/09/15 02:32:29;;;;;;;8.77;7.40;;;;;;;;;;4997469;28;20057;-80
2022/09/15 02:34:57;;;;;;;7.78;6.97;;;;;;;;;;4997167;28;20504;-81
2022/09/15 02:37:25;;;;;;;9.45;7.03;;;;;;;;;;4997421;28;20078;-80
2022/09/15 02:39:59;;;;;;;8.88;7.32;;;;;;;;;;5014354;28;20054;-80
2022/09/15 02:42:28;;;;;;;8.00;7.03;;;;;;;;;;4997307;28;20046;-80
2022/09/15 02:44:55;;;;;;;14.40;8.63;;;;;;;;;;5014478;28;20504;-80
2022/09/15 02:47:23;;;;;;;15.55;9.98;;;;;;;;;;5014514;28;20046;-80
2022/09/15 02:49:50;;;;;;;9.60;7.20;;;;;;;;;;4997161;28;20489;-80
2022/09/15 02:52:17;;;;;;;9.98;7.07;;;;;;;;;;4997190;28;20050;-80
2022/09/15 02:54:44;;;;;;;12.35;7.10;;;;;;;;;;4998923;28;20057;-81
2022/09/15 02:57:13;;;;;;;10.68;7.78;;;;;;;;;;4998293;28;20052;-81
2022/09/15 03:02:26;;;;;;;11.13;8.40;;;;;;;;;;5016177;28;20091;-81
2022/09/15 03:04:53;;;;;;;12.27;7.65;;;;;;;;;;4998430;28;20053;-81
2022/09/15 03:07:20;;;;;;;15.13;8.30;;;;;;;;;;5016122;28;20046;-81
2022/09/15 03:09:47;;;;;;;13.15;7.60;;;;;;;;;;4998296;28;20062;-81
2022/09/15 03:12:14;;;;;;;14.73;8.88;;;;;;;;;;5015913;28;20089;-80
2022/09/15 03:14:42;;;;;;;17.60;9.20;;;;;;;;;;5015332;28;20509;-81
2022/09/15 03:17:09;;;;;;;18.20;9.30;;;;;;;;;;4997430;28;20057;-80
2022/09/15 03:19:36;;;;;;;14.32;8.35;;;;;;;;;;4997759;28;20046;-80
2022/09/15 03:22:03;;;;;;;17.75;9.45;;;;;;;;;;4997271;28;20402;-81
2022/09/15 03:24:31;;;;;;;15.63;8.75;;;;;;;;;;4997604;28;20132;-80
2022/09/15 03:26:58;;;;;;;14.98;9.35;;;;;;;;;;4997622;28;20050;-81
2022/09/15 03:29:25;;;;;;;14.43;8.77;;;;;;;;;;4997647;28;20048;-82
2022/09/15 03:31:52;;;;;;;16.45;8.95;;;;;;;;;;4997613;28;20424;-81
2022/09/15 03:34:19;;;;;;;15.45;8.45;;;;;;;;;;4997408;28;20519;-80
2022/09/15 03:36:46;;;;;;;13.02;8.00;;;;;;;;;;5014882;28;20076;-81
2022/09/15 03:39:16;;;;;;;20.65;10.32;;;;;;;;;;5015943;28;20057;-81
2022/09/15 03:41:43;;;;;;;17.02;9.38;;;;;;;;;;4997717;28;20050;-82
2022/09/15 03:44:10;;;;;;;15.52;8.82;;;;;;;;;;5015723;28;20050;-82
2022/09/15 03:46:37;;;;;;;18.00;9.10;;;;;;;;;;4997972;28;20052;-82
2022/09/15 03:49:05;;;;;;;19.95;10.23;;;;;;;;;;4998011;28;20050;-81
2022/09/15 03:51:32;;;;;;;19.77;9.73;;;;;;;;;;4998795;28;20519;-81
2022/09/15 03:53:59;;;;;;;18.50;10.07;;;;;;;;;;5015373;28;20057;-81
2022/09/15 03:56:30;;;;;;;21.02;12.40;;;;;;;;;;5015549;28;20049;-82
2022/09/15 03:58:57;;;;;;;25.52;13.18;;;;;;;;;;5040291;22;20049;-93
2022/09/15 04:01:26;;;;;;;28.92;13.27;;;;;;;;;;5032834;28;20093;-94
2022/09/15 04:03:56;;;;;;;20.98;12.73;;;;;;;;;;5033301;28;20050;-93
2022/09/15 04:06:24;;;;;;;24.05;14.10;;;;;;;;;;5033172;28;20132;-93
2022/09/15 04:08:52;;;;;;;22.92;13.20;;;;;;;;;;5033296;28;20349;-93
2022/09/15 04:11:20;;;;;;;33.63;15.73;;;;;;;;;;5035875;28;20060;-94
2022/09/15 04:13:47;;;;;;;28.83;13.95;;;;;;;;;;5035054;28;20049;-94
2022/09/15 04:16:16;;;;;;;29.63;15.55;;;;;;;;;;5033001;28;20508;-92
2022/09/15 04:18:43;;;;;;;33.25;16.55;;;;;;;;;;5033403;28;20055;-93
2022/09/15 04:21:12;;;;;;;42.53;17.98;;;;;;;;;;5033379;28;20134;-94
2022/09/15 04:23:40;;;;;;;32.72;16.52;;;;;;;;;;5035231;28;20478;-93
2022/09/15 04:26:10;;;;;;;35.80;17.27;;;;;;;;;;5035781;28;20088;-93
2022/09/15 04:28:38;;;;;;;44.80;19.75;;;;;;;;;;5034998;28;20055;-94
2022/09/15 04:31:07;;;;;;;41.95;17.63;;;;;;;;;;5038337;28;20068;-93
2022/09/15 04:33:34;;;;;;;41.05;17.45;;;;;;;;;;5032878;28;20053;-92
2022/09/15 04:36:02;;;;;;;52.08;17.23;;;;;;;;;;5032859;28;20059;-94
2022/09/15 04:38:30;;;;;;;27.25;12.63;;;;;;;;;;5032942;28;20057;-93
2022/09/15 04:40:58;;;;;;;35.20;16.77;;;;;;;;;;5032568;28;20049;-93
2022/09/15 04:43:26;;;;;;;30.63;14.85;;;;;;;;;;5032708;28;20057;-93
2022/09/15 04:45:53;;;;;;;31.50;15.77;;;;;;;;;;5032951;28;20061;-92
2022/09/15 04:48:20;;;;;;;26.88;14.82;;;;;;;;;;5032912;28;20072;-93
2022/09/15 04:50:48;;;;;;;21.40;11.85;;;;;;;;;;5033252;28;20060;-94
2022/09/15 04:53:15;;;;;;;14.82;10.73;;;;;;;;;;5032994;28;20067;-93
2022/09/15 04:55:43;;;;;;;16.63;10.00;;;;;;;;;;5034391;28;20050;-95
2022/09/15 04:58:10;;;;;;;11.73;8.32;;;;;;;;;;5033081;28;20057;-93
2022/09/15 05:00:41;;;;;;;14.98;9.23;;;;;;;;;;5034662;28;20107;-95
2022/09/15 05:03:10;;;;;;;13.32;8.80;;;;;;;;;;5035368;28;20494;-93
2022/09/15 05:05:37;;;;;;;21.20;11.35;;;;;;;;;;5034223;28;20137;-94
2022/09/15 05:08:05;;;;;;;14.45;9.50;;;;;;;;;;5032918;28;20142;-92
2022/09/15 05:10:32;;;;;;;17.55;10.32;;;;;;;;;;5032929;28;20508;-92
2022/09/15 05:12:59;;;;;;;26.73;11.68;;;;;;;;;;5035163;28;20061;-92
2022/09/15 05:15:26;;;;;;;21.17;11.82;;;;;;;;;;5037215;28;20408;-93
2022/09/15 05:17:54;;;;;;;18.80;12.68;;;;;;;;;;5032719;28;20053;-93
2022/09/15 05:20:21;;;;;;;31.52;13.52;;;;;;;;;;5035718;28;20055;-91
2022/09/15 05:22:48;;;;;;;20.77;11.90;;;;;;;;;;5036332;28;20080;-92
2022/09/15 05:25:15;;;;;;;28.98;13.50;;;;;;;;;;5038346;28;20041;-92
2022/09/15 05:27:42;;;;;;;16.50;11.60;;;;;;;;;;5036150;28;20049;-92
2022/09/15 05:30:10;;;;;;;15.77;10.15;;;;;;;;;;5036071;28;20069;-92
2022/09/15 05:32:57;;;;;;;21.33;12.45;;;;;;;;;;5036022;28;20048;-91
2022/09/15 05:35:24;;;;;;;18.23;11.13;;;;;;;;;;5035876;28;20090;-92
2022/09/15 05:37:51;;;;;;;19.17;11.95;;;;;;;;;;5035961;28;20052;-91
2022/09/15 05:40:20;;;;;;;19.08;12.45;;;;;;;;;;5035694;28;20053;-91
2022/09/15 05:42:47;;;;;;;16.65;12.05;;;;;;;;;;5035958;28;20060;-92
2022/09/15 05:45:14;;;;;;;24.95;14.50;;;;;;;;;;5035616;28;20055;-91
2022/09/15 05:47:42;;;;;;;29.90;12.25;;;;;;;;;;5037039;28;20064;-92
2022/09/15 05:50:10;;;;;;;49.17;14.07;;;;;;;;;;5035677;28;20052;-90
2022/09/15 05:52:37;;;;;;;34.92;11.82;;;;;;;;;;5036197;28;20409;-90
2022/09/15 05:55:04;;;;;;;46.03;13.07;;;;;;;;;;5035555;28;20049;-91
2022/09/15 05:57:32;;;;;;;26.90;11.00;;;;;;;;;;5035611;28;20145;-90
2022/09/15 05:59:59;;;;;;;20.13;10.05;;;;;;;;;;5035057;28;20073;-91
2022/09/15 06:02:26;;;;;;;21.05;9.52;;;;;;;;;;5034984;28;20540;-92
2022/09/15 06:04:53;;;;;;;22.65;9.48;;;;;;;;;;5035591;28;20556;-90
2022/09/15 06:07:20;;;;;;;18.83;9.40;;;;;;;;;;5035358;28;20061;-90
2022/09/15 06:09:47;;;;;;;13.77;9.43;;;;;;;;;;5035302;28;20482;-89
2022/09/15 06:12:16;;;;;;;18.13;10.50;;;;;;;;;;5035252;28;20520;-89
2022/09/15 06:14:44;;;;;;;19.90;10.38;;;;;;;;;;5035132;28;20387;-89
2022/09/15 06:17:11;;;;;;;16.58;9.75;;;;;;;;;;5035276;28;20091;-89
2022/09/15 06:19:39;;;;;;;20.40;9.25;;;;;;;;;;5035081;28;20521;-90
2022/09/15 06:22:06;;;;;;;19.88;9.30;;;;;;;;;;5034669;28;20057;-89
2022/09/15 06:24:33;;;;;;;16.02;9.30;;;;;;;;;;5034745;28;20048;-89
2022/09/15 06:27:00;;;;;;;27.27;11.25;;;;;;;;;;5034899;28;20055;-89
2022/09/15 06:29:27;;;;;;;15.82;8.07;;;;;;;;;;5034740;28;20050;-90
2022/09/15 06:31:55;;;;;;;14.55;7.40;;;;;;;;;;5033916;28;20402;-89
2022/09/15 06:34:23;;;;;;;16.05;7.55;;;;;;;;;;5034601;28;20397;-90
2022/09/15 06:36:50;;;;;;;14.55;6.63;;;;;;;;;;5035044;28;20053;-89
2022/09/15 06:39:17;;;;;;;14.20;8.95;;;;;;;;;;5034791;28;20413;-89
2022/09/15 06:41:44;;;;;;;11.77;7.35;;;;;;;;;;5035298;28;20057;-89
2022/09/15 06:44:28;;;;;;;12.60;6.55;;;;;;;;;;5039936;28;20053;-89
2022/09/15 06:46:55;;;;;;;11.32;5.88;;;;;;;;;;5038610;28;20061;-89
2022/09/15 06:49:22;;;;;;;15.63;6.10;;;;;;;;;;5034558;28;20414;-89
2022/09/15 06:51:49;;;;;;;12.02;6.05;;;;;;;;;;5035528;28;20053;-89
2022/09/15 06:54:17;;;;;;;17.95;7.68;;;;;;;;;;5034133;28;20486;-88
2022/09/15 06:56:44;;;;;;;13.75;7.40;;;;;;;;;;5034268;28;20073;-88
2022/09/15 06:59:11;;;;;;;17.17;6.85;;;;;;;;;;5034924;28;20052;-88
2022/09/15 07:01:39;;;;;;;23.92;8.40;;;;;;;;;;5034090;28;20056;-88
2022/09/15 07:04:08;;;;;;;13.75;6.60;;;;;;;;;;5034432;28;20052;-88
2022/09/15 07:06:36;;;;;;;18.95;7.20;;;;;;;;;;5034121;28;20499;-89
2022/09/15 07:09:04;;;;;;;14.05;6.50;;;;;;;;;;5034968;28;20076;-87
2022/09/15 07:11:34;;;;;;;10.80;6.50;;;;;;;;;;5034246;28;20263;-88
2022/09/15 07:14:01;;;;;;;14.95;6.43;;;;;;;;;;5034015;28;20050;-87
2022/09/15 07:16:29;;;;;;;19.30;7.75;;;;;;;;;;5034956;28;20042;-87
2022/09/15 07:18:59;;;;;;;13.93;6.35;;;;;;;;;;5034034;28;20107;-88
2022/09/15 07:21:26;;;;;;;10.25;6.20;;;;;;;;;;5033500;28;20052;-88
2022/09/15 07:23:55;;;;;;;11.65;6.75;;;;;;;;;;5033721;28;20059;-88
2022/09/15 07:26:24;;;;;;;11.07;5.82;;;;;;;;;;5034874;28;20434;-88
2022/09/15 07:28:53;;;;;;;16.75;6.10;;;;;;;;;;5034661;28;20056;-88
2022/09/15 07:31:22;;;;;;;8.85;5.97;;;;;;;;;;5033736;28;20054;-88
2022/09/15 07:33:49;;;;;;;12.48;6.05;;;;;;;;;;5033377;28;20500;-89
2022/09/15 07:36:17;;;;;;;12.45;6.50;;;;;;;;;;5034488;28;20071;-89
2022/09/15 07:38:46;;;;;;;13.18;6.50;;;;;;;;;;5033817;28;20498;-88
2022/09/15 07:41:24;;;;;;;12.48;6.30;;;;;;;;;;5033331;28;20068;-88
2022/09/15 07:43:52;;;;;;;7.43;5.57;;;;;;;;;;5033259;28;20049;-89
2022/09/15 07:46:20;;;;;;;9.23;5.60;;;;;;;;;;5033187;28;20049;-88
2022/09/15 07:48:48;;;;;;;13.05;6.50;;;;;;;;;;5034345;28;20140;-89
2022/09/15 07:51:16;;;;;;;16.23;7.03;;;;;;;;;;5034087;28;20057;-88
2022/09/15 07:53:44;;;;;;;7.50;5.60;;;;;;;;;;5034256;28;20057;-89
2022/09/15 07:56:11;;;;;;;15.77;8.07;;;;;;;;;;5034279;28;20052;-89
2022/09/15 07:58:38;;;;;;;15.95;6.97;;;;;;;;;;5033107;28;20064;-88
2022/09/15 08:01:08;;;;;;;12.85;6.38;;;;;;;;;;5034785;28;20045;-90
2022/09/15 08:03:35;;;;;;;12.40;6.88;;;;;;;;;;5035214;28;20422;-89
2022/09/15 08:06:03;;;;;;;11.57;7.20;;;;;;;;;;5034839;28;20132;-89
2022/09/15 08:08:30;;;;;;;11.55;6.65;;;;;;;;;;5035602;28;20045;-89
2022/09/15 08:10:57;;;;;;;15.30;7.47;;;;;;;;;;5035813;28;20136;-88
2022/09/15 08:13:24;;;;;;;13.13;7.75;;;;;;;;;;5034907;28;20045;-89
2022/09/15 08:15:52;;;;;;;8.98;6.30;;;;;;;;;;5035398;28;20413;-90
2022/09/15 08:18:19;;;;;;;9.55;6.68;;;;;;;;;;5035124;28;20046;-89
2022/09/15 08:20:46;;;;;;;11.02;6.70;;;;;;;;;;5036775;28;20065;-90
2022/09/15 08:23:14;;;;;;;14.15;6.88;;;;;;;;;;5035523;28;20077;-89
2022/09/15 08:25:43;;;;;;;16.50;7.78;;;;;;;;;;5036822;28;20046;-90
2022/09/15 08:28:10;;;;;;;11.60;6.20;;;;;;;;;;5035575;28;20056;-90
2022/09/15 08:30:37;;;;;;;12.85;7.43;;;;;;;;;;5035234;28;20120;-90
2022/09/15 08:33:05;;;;;;;12.00;6.50;;;;;;;;;;5035873;28;20529;-91
2022/09/15 08:35:33;;;;;;;12.85;6.68;;;;;;;;;;5034284;28;20049;-91
2022/09/15 08:38:00;;;;;;;12.73;6.30;;;;;;;;;;5033679;28;20053;-92
2022/09/15 08:40:33;;;;;;;11.55;6.35;;;;;;;;;;5033973;28;20049;-91
2022/09/15 08:43:05;;;;;;;10.10;7.07;;;;;;;;;;5032877;28;20096;-92
2022/09/15 08:45:43;;;;;;;11.70;7.18;;;;;;;;;;5032803;28;20054;-91
2022/09/15 08:48:14;;;;;;;9.00;6.20;;;;;;;;;;5032832;28;20050;-92
2022/09/15 08:50:44;;;;;;;13.23;6.80;;;;;;;;;;5032880;28;20048;-92
2022/09/15 08:53:13;;;;;;;9.93;5.80;;;;;;;;;;5032579;28;20076;-92
2022/09/15 08:55:46;;;;;;;9.55;5.35;;;;;;;;;;5037209;28;20053;-92
2022/09/15 08:58:16;;;;;;;6.75;5.65;;;;;;;;;;5038591;28;20045;-93
2022/09/15 09:00:44;;;;;;;8.68;6.43;;;;;;;;;;5037270;28;20061;-93
2022/09/15 09:03:27;;;;;;;13.35;5.95;;;;;;;;;;5036862;28;20050;-93
2022/09/15 09:06:13;;;;;;;8.13;5.80;;;;;;;;;;5037480;28;20235;-93
2022/09/15 09:08:40;;;;;;;10.02;5.93;;;;;;;;;;5036783;28;20045;-94
2022/09/15 09:11:18;;;;;;;11.00;6.75;;;;;;;;;;5037451;28;20056;-91
2022/09/15 09:13:48;;;;;;;7.47;6.72;;;;;;;;;;5039778;28;20056;-95
2022/09/15 09:16:25;;;;;;;11.32;5.53;;;;;;;;;;5036169;28;20096;-93
2022/09/15 09:18:55;;;;;;;10.75;5.05;;;;;;;;;;5036671;28;20413;-93
2022/09/15 09:21:31;;;;;;;8.32;5.00;;;;;;;;;;5039050;28;20054;-93
2022/09/15 09:24:05;;;;;;;9.52;4.72;;;;;;;;;;5039225;28;20050;-93
2022/09/15 09:26:34;;;;;;;13.45;4.50;;;;;;;;;;5045057;28;20132;-93
2022/09/15 09:29:07;;;;;;;10.35;4.72;;;;;;;;;;5037456;28;20081;-94
2022/09/15 09:31:35;;;;;;;10.50;4.40;;;;;;;;;;5038176;28;20050;-92
2022/09/15 09:34:22;;;;;;;11.05;4.80;;;;;;;;;;5038822;28;20506;-94
2022/09/15 09:36:54;;;;;;;6.82;4.18;;;;;;;;;;5040927;28;20054;-95
2022/09/15 09:39:21;;;;;;;9.95;4.78;;;;;;;;;;5038421;28;20057;-94
2022/09/15 09:41:50;;;;;;;7.10;3.88;;;;;;;;;;5036261;28;20465;-93
2022/09/15 09:44:18;;;;;;;7.10;4.07;;;;;;;;;;5039760;28;20046;-94
2022/09/15 09:46:46;;;;;;;6.93;3.72;;;;;;;;;;5037241;28;20049;-93
2022/09/15 09:49:21;;;;;;;10.65;4.95;;;;;;;;;;5041341;28;20054;-94
2022/09/15 09:51:51;;;;;;;7.90;4.63;;;;;;;;;;5039624;28;20045;-95
2022/09/15 09:54:20;;;;;;;6.72;4.78;;;;;;;;;;5038048;28;20060;-94
2022/09/15 09:56:48;;;;;;;7.78;4.10;;;;;;;;;;5037798;28;20056;-96
2022/09/15 09:59:35;;;;;;;13.00;4.05;;;;;;;;;;5047566;28;20053;-92
2022/09/15 10:02:12;;;;;;;8.50;3.28;;;;;;;;;;5049407;28;20072;-96
2022/09/15 10:04:43;;;;;;;11.18;3.88;;;;;;;;;;5043925;28;20383;-92
2022/09/15 10:07:11;;;;;;;5.28;3.38;;;;;;;;;;5035378;28;20600;-90
2022/09/15 10:09:38;;;;;;;3.97;2.40;;;;;;;;;;5037558;28;20056;-93
2022/09/15 10:12:06;;;;;;;5.70;2.85;;;;;;;;;;5036227;28;20068;-96
2022/09/15 10:14:44;;;;;;;4.95;2.00;;;;;;;;;;5042451;28;20054;-95
2022/09/15 10:17:19;;;;;;;5.40;2.67;;;;;;;;;;5040300;28;20037;-94
2022/09/15 10:19:52;;;;;;;3.47;1.92;;;;;;;;;;5041769;28;20056;-93
2022/09/15 10:22:34;;;;;;;4.82;2.42;;;;;;;;;;5039966;28;20068;-94
2022/09/15 10:25:02;;;;;;;4.05;2.00;;;;;;;;;;5035072;28;20060;-94
2022/09/15 10:27:33;;;;;;;5.13;1.63;;;;;;;;;;5035440;28;20053;-93
2022/09/15 10:30:12;;;;;;;3.40;1.70;;;;;;;;;;5037099;28;20048;-94
2022/09/15 10:32:40;;;;;;;3.58;2.20;;;;;;;;;;5041477;28;20059;-94
2022/09/15 10:35:11;;;;;;;8.35;2.67;;;;;;;;;;5036780;28;20042;-95
2022/09/15 10:37:57;;;;;;;7.47;2.40;;;;;;;;;;5037053;28;20525;-92
2022/09/15 10:40:31;;;;;;;8.15;2.45;;;;;;;;;;5036197;28;20055;-93
2022/09/15 10:43:17;;;;;;;5.65;2.10;;;;;;;;;;5035160;28;20509;-91
2022/09/15 10:45:47;;;;;;;3.63;1.52;;;;;;;;;;5034865;28;20054;-93
2022/09/15 10:48:35;;;;;;;2.67;1.38;;;;;;;;;;5037754;28;20077;-94
2022/09/15 10:51:09;;;;;;;2.70;1.48;;;;;;;;;;5035588;28;20057;-93
2022/09/15 10:53:36;;;;;;;3.35;1.50;;;;;;;;;;5036118;28;20059;-90
2022/09/15 10:56:17;;;;;;;9.52;1.40;;;;;;;;;;5035522;28;20045;-91
2022/09/15 10:58:59;;;;;;;3.83;1.27;;;;;;;;;;5035245;28;20133;-91
2022/09/15 11:01:29;;;;;;;3.00;1.33;;;;;;;;;;5035944;28;20057;-91
2022/09/15 11:04:14;;;;;;;3.97;1.25;;;;;;;;;;5035089;28;20425;-92
2022/09/15 11:06:48;;;;;;;2.88;0.82;;;;;;;;;;5036068;28;20053;-92
2022/09/15 11:09:22;;;;;;;3.35;1.00;;;;;;;;;;5034932;28;20049;-90
2022/09/15 11:11:56;;;;;;;6.65;1.10;;;;;;;;;;5035406;28;20458;-91
2022/09/15 11:14:47;;;;;;;2.78;1.02;;;;;;;;;;5034491;28;20091;-92
2022/09/15 11:17:26;;;;;;;1.48;0.80;;;;;;;;;;5034479;28;20057;-91
2022/09/15 11:20:04;;;;;;;1.33;0.65;;;;;;;;;;5034467;28;20409;-90
2022/09/15 11:22:34;;;;;;;6.20;1.25;;;;;;;;;;5035035;28;20049;-90
2022/09/15 11:25:03;;;;;;;3.45;1.00;;;;;;;;;;5035298;28;20045;-89
2022/09/15 11:27:30;;;;;;;2.45;0.85;;;;;;;;;;5035444;28;20042;-90
2022/09/15 11:30:07;;;;;;;3.35;0.90;;;;;;;;;;5034302;28;20060;-89
2022/09/15 11:32:55;;;;;;;0.95;0.60;;;;;;;;;;5034960;28;20046;-91
2022/09/15 11:35:34;;;;;;;2.78;0.70;;;;;;;;;;5035899;28;20048;-91
2022/09/15 11:38:05;;;;;;;4.03;0.80;;;;;;;;;;5035634;28;20056;-92
2022/09/15 11:40:44;;;;;;;3.47;0.70;;;;;;;;;;5035175;28;20562;-93
2022/09/15 11:43:29;;;;;;;1.95;0.80;;;;;;;;;;5033792;28;20088;-89
2022/09/15 11:45:58;;;;;;;5.78;0.80;;;;;;;;;;5033680;28;20049;-89
2022/09/15 11:48:35;;;;;;;1.48;0.77;;;;;;;;;;5034005;28;20060;-89
2022/09/15 11:51:05;;;;;;;1.20;0.68;;;;;;;;;;5033729;28;20096;-93
2022/09/15 11:53:39;;;;;;;3.80;0.80;;;;;;;;;;5034755;28;20046;-90
2022/09/15 11:56:15;;;;;;;3.00;0.93;;;;;;;;;;5033811;28;20056;-90
2022/09/15 11:58:42;;;;;;;6.00;0.80;;;;;;;;;;5033589;28;20509;-88
2022/09/15 12:01:10;;;;;;;8.60;1.58;;;;;;;;;;5034404;28;20056;-91
2022/09/15 12:03:47;;;;;;;6.25;0.90;;;;;;;;;;5033525;28;20056;-90
2022/09/15 12:06:29;;;;;;;6.80;0.93;;;;;;;;;;5033683;28;20057;-89
2022/09/15 12:09:07;;;;;;;2.97;1.00;;;;;;;;;;5033108;28;20053;-89
2022/09/15 12:11:35;;;;;;;3.03;0.80;;;;;;;;;;5032858;28;20486;-88
2022/09/15 12:14:04;;;;;;;8.57;1.17;;;;;;;;;;5034589;28;20057;-88
2022/09/15 12:16:32;;;;;;;6.00;0.85;;;;;;;;;;5032923;28;20053;-89
2022/09/15 12:19:06;;;;;;;2.85;0.98;;;;;;;;;;5032804;28;20099;-89
2022/09/15 12:21:34;;;;;;;;;;;;;;;;;;5033512;28;20128;-90
2022/09/15 12:24:07;;;;;;;17.10;1.80;;;;;;;;;;5033582;28;19921;-89
2022/09/15 12:26:34;;;;;;;5.65;0.85;;;;;;;;;;5033851;28;20528;-88
2022/09/15 12:29:21;;;;;;;19.83;2.00;;;;;;;;;;5031919;28;20041;-86
2022/09/15 12:32:06;;;;;;;5.47;1.50;;;;;;;;;;5032244;28;20143;-89
2022/09/15 12:34:35;;;;;;;8.55;0.95;;;;;;;;;;5032760;28;20048;-89
2022/09/15 12:37:15;;;;;;;1.85;1.05;;;;;;;;;;5032533;28;20049;-89
2022/09/15 12:39:43;;;;;;;2.22;1.00;;;;;;;;;;5032752;28;20413;-89
2022/09/15 12:42:10;;;;;;;1.35;0.90;;;;;;;;;;5033492;28;20049;-88
2022/09/15 12:44:58;;;;;;;2.28;1.00;;;;;;;;;;5033578;28;20057;-89
2022/09/15 12:47:25;;;;;;;1.30;0.93;;;;;;;;;;5033510;28;20053;-89
2022/09/15 12:49:57;;;;;;;1.38;0.60;;;;;;;;;;5032658;28;20471;-89
2022/09/15 12:52:25;;;;;;;2.65;1.25;;;;;;;;;;5032466;28;20052;-89
2022/09/15 12:54:54;;;;;;;1.95;1.10;;;;;;;;;;5032339;28;20441;-89
2022/09/15 12:57:24;;;;;;;2.90;0.80;;;;;;;;;;5032428;28;20050;-88
2022/09/15 13:00:11;;;;;;;2.72;0.88;;;;;;;;;;5033305;28;20057;-88
2022/09/15 13:02:43;;;;;;;4.85;0.90;;;;;;;;;;5032184;28;20052;-88
2022/09/15 13:05:11;;;;;;;3.42;0.95;;;;;;;;;;5033396;28;20049;-88
2022/09/15 13:08:05;;;;;;;2.55;0.88;;;;;;;;;;5032714;28;20084;-88
2022/09/15 13:10:34;;;;;;;1.80;1.00;;;;;;;;;;5031441;28;20076;-89
2022/09/15 13:13:09;;;;;;;1.85;0.80;;;;;;;;;;5032070;28;20059;-89
2022/09/15 13:15:40;;;;;;;2.05;0.77;;;;;;;;;;5033015;28;20057;-89
2022/09/15 13:18:08;;;;;;;7.57;1.05;;;;;;;;;;5032455;28;20049;-89
2022/09/15 13:20:37;;;;;;;4.18;1.25;;;;;;;;;;5032308;28;20053;-88
2022/09/15 13:23:07;;;;;;;13.45;1.65;;;;;;;;;;5032203;28;20050;-87
2022/09/15 13:25:35;;;;;;;13.82;1.83;;;;;;;;;;5033157;28;20517;-87
2022/09/15 13:28:03;;;;;;;4.15;1.15;;;;;;;;;;5032936;28;20484;-88
2022/09/15 13:30:42;;;;;;;1.40;0.80;;;;;;;;;;5033282;28;20060;-89
2022/09/15 13:33:27;;;;;;;3.05;0.90;;;;;;;;;;5032952;28;20107;-89
2022/09/15 13:36:36;;;;;;;1.35;0.88;;;;;;;;;;5032060;28;20053;-89
2022/09/15 13:39:35;;;;;;;2.17;1.10;;;;;;;;;;5032951;28;20489;-88
2022/09/15 13:42:11;;;;;;;0.90;0.90;;;;;;;;;;5035680;28;20493;-88
2022/09/15 13:44:48;;;;;;;1.48;1.10;;;;;;;;;;5035575;28;20042;-88
2022/09/15 13:47:34;;;;;;;1.00;0.90;;;;;;;;;;5035495;28;20068;-89
2022/09/15 13:50:14;;;;;;;3.90;1.10;;;;;;;;;;5036499;28;20049;-90
2022/09/15 13:52:59;;;;;;;5.80;1.55;;;;;;;;;;5035810;28;20056;-87
2022/09/15 13:55:28;;;;;;;3.00;1.10;;;;;;;;;;5036286;28;20050;-88
2022/09/15 13:57:56;;;;;;;3.00;1.38;;;;;;;;;;5035272;28;20050;-85
2022/09/15 14:00:53;;;;;;;2.30;1.10;;;;;;;;;;5035314;28;20061;-87
2022/09/15 14:03:24;;;;;;;11.73;2.17;;;;;;;;;;5036334;28;20406;-88
2022/09/15 14:05:52;;;;;;;7.50;1.40;;;;;;;;;;5035209;28;20053;-88
2022/09/15 14:08:22;;;;;;;3.70;1.10;;;;;;;;;;5035203;28;20498;-89
2022/09/15 14:10:51;;;;;;;1.33;1.05;;;;;;;;;;5035923;28;20045;-87
2022/09/15 14:13:19;;;;;;;10.43;1.80;;;;;;;;;;5036234;28;20141;-88
2022/09/15 14:15:57;;;;;;;4.22;1.42;;;;;;;;;;5036050;28;20501;-87
2022/09/15 14:18:24;;;;;;;4.57;1.20;;;;;;;;;;5035028;28;20494;-88
2022/09/15 14:21:02;;;;;;;3.72;1.30;;;;;;;;;;5035991;28;20045;-88
2022/09/15 14:23:29;;;;;;;3.72;1.05;;;;;;;;;;5035081;28;20060;-88
2022/09/15 14:25:59;;;;;;;1.55;1.20;;;;;;;;;;5035520;28;20510;-86
2022/09/15 14:28:30;;;;;;;14.05;1.50;;;;;;;;;;5034908;28;20049;-88
2022/09/15 14:30:58;;;;;;;1.90;1.08;;;;;;;;;;5035732;28;20418;-87
2022/09/15 14:33:30;;;;;;;18.42;2.03;;;;;;;;;;5035815;28;20045;-90
2022/09/15 14:36:11;;;;;;;4.10;1.20;;;;;;;;;;5034485;28;20116;-88
2022/09/15 14:38:38;;;;;;;2.80;1.23;;;;;;;;;;5035521;28;20064;-88
2022/09/15 14:41:06;;;;;;;3.10;1.20;;;;;;;;;;5035592;28;20049;-87
2022/09/15 14:43:34;;;;;;;2.58;1.13;;;;;;;;;;5034619;28;20053;-88
2022/09/15 14:46:11;;;;;;;2.22;1.33;;;;;;;;;;5034640;28;20045;-86
2022/09/15 14:48:39;;;;;;;4.10;1.80;;;;;;;;;;5034118;28;20494;-89
2022/09/15 14:51:18;;;;;;;3.67;1.88;;;;;;;;;;5034850;28;20053;-88
2022/09/15 14:53:45;;;;;;;8.45;1.13;;;;;;;;;;5034163;28;20045;-87
2022/09/15 14:56:21;;;;;;;1.08;0.77;;;;;;;;;;5035322;28;20100;-88
2022/09/15 14:59:11;;;;;;;2.83;1.20;;;;;;;;;;5035156;28;20409;-88
2022/09/15 15:01:51;;;;;;;2.58;1.10;;;;;;;;;;5026903;28;20045;-88